Time;durP1;ratioP1;P1;durP2;ratioP2;P2;SDS_P1;SDS_P2;PMS_P1;PMS_P2;Temp;Humidity;BMP_temperature;BMP_pressure;BME280_temperature;BME280_humidity;BME280_pressure;Samples;Min_cycle;Max_cycle;Signal;HPM_P1;HPM_P2
2023/10/11 00:00:52;;;;;;;6.47;3.90;;;;;;;;;;703766;28;908;-68
2023/10/11 00:01:05;;;;;;;7.90;3.95;;;;;;;;;;694918;28;69396;-68
2023/10/11 00:01:26;;;;;;;7.50;4.05;;;;;;;;;;701978;28;4590;-68
2023/10/11 00:01:46;;;;;;;9.10;4.10;;;;;;;;;;702392;28;803;-68
2023/10/11 00:02:08;;;;;;;8.23;4.13;;;;;;;;;;700590;28;2487;-68
2023/10/11 00:02:30;;;;;;;8.82;4.90;;;;;;;;;;703719;28;823;-68
2023/10/11 00:02:51;;;;;;;8.73;4.22;;;;;;;;;;702273;28;962;-67
2023/10/11 00:03:53;;;;;;;8.55;3.90;;;;;;;;;;700958;28;69711;-68
2023/10/11 00:04:26;;;;;;;7.55;4.00;;;;;;;;;;699571;27;71684;-68
2023/10/11 00:04:48;;;;;;;6.65;3.85;;;;;;;;;;701164;28;68543;-68
2023/10/11 00:05:09;;;;;;;9.52;4.10;;;;;;;;;;700349;28;1907;-68
2023/10/11 00:05:36;;;;;;;7.97;4.10;;;;;;;;;;702422;28;1201;-68
2023/10/11 00:05:56;;;;;;;7.22;3.97;;;;;;;;;;699373;28;69077;-68
2023/10/11 00:06:17;;;;;;;7.28;4.10;;;;;;;;;;702518;28;1033;-68
2023/10/11 00:06:37;;;;;;;6.35;3.83;;;;;;;;;;703224;28;877;-68
2023/10/11 00:06:58;;;;;;;6.40;3.97;;;;;;;;;;702393;28;2500;-68
2023/10/11 00:07:18;;;;;;;6.77;4.10;;;;;;;;;;701405;28;4422;-68
2023/10/11 00:07:38;;;;;;;8.13;4.00;;;;;;;;;;702675;28;994;-68
2023/10/11 00:08:01;;;;;;;8.40;3.90;;;;;;;;;;701449;28;2224;-68
2023/10/11 00:08:29;;;;;;;7.72;3.95;;;;;;;;;;701991;28;963;-68
2023/10/11 00:08:50;;;;;;;6.85;4.03;;;;;;;;;;701177;28;70396;-68
2023/10/11 00:09:16;;;;;;;7.70;3.85;;;;;;;;;;700542;28;2280;-68
2023/10/11 00:09:38;;;;;;;7.25;3.90;;;;;;;;;;699963;28;70353;-68
2023/10/11 00:09:58;;;;;;;7.63;3.78;;;;;;;;;;700652;28;3062;-68
2023/10/11 00:10:19;;;;;;;7.50;3.80;;;;;;;;;;701470;28;4398;-68
2023/10/11 00:10:47;;;;;;;7.35;3.83;;;;;;;;;;701133;28;1400;-68
2023/10/11 00:11:07;;;;;;;9.77;4.05;;;;;;;;;;698682;28;69629;-68
2023/10/11 00:11:30;;;;;;;9.33;4.17;;;;;;;;;;701792;28;1910;-69
2023/10/11 00:11:50;;;;;;;7.50;4.20;;;;;;;;;;702816;28;939;-68
2023/10/11 00:12:11;;;;;;;8.77;4.00;;;;;;;;;;700072;28;1891;-68
2023/10/11 00:12:32;;;;;;;8.27;4.07;;;;;;;;;;703489;28;986;-68
2023/10/11 00:12:52;;;;;;;8.17;4.00;;;;;;;;;;702810;28;911;-68
2023/10/11 00:13:15;;;;;;;7.93;4.17;;;;;;;;;;700507;28;4463;-68
2023/10/11 00:13:36;;;;;;;7.13;3.92;;;;;;;;;;702794;27;1147;-68
2023/10/11 00:13:56;;;;;;;7.95;4.47;;;;;;;;;;700095;28;1816;-68
2023/10/11 00:14:19;;;;;;;8.93;4.10;;;;;;;;;;703059;28;1125;-68
2023/10/11 00:14:39;;;;;;;6.50;3.63;;;;;;;;;;705542;27;1061;-68
2023/10/11 00:14:59;;;;;;;7.05;3.83;;;;;;;;;;701437;28;1856;-69
2023/10/11 00:15:20;;;;;;;7.63;4.20;;;;;;;;;;701788;28;800;-69
2023/10/11 00:15:41;;;;;;;7.43;4.23;;;;;;;;;;701924;28;1014;-68
2023/10/11 00:16:08;;;;;;;6.90;3.90;;;;;;;;;;700365;28;1015;-68
2023/10/11 00:16:31;;;;;;;8.13;4.22;;;;;;;;;;699771;28;89638;-68
2023/10/11 00:16:53;;;;;;;6.53;3.83;;;;;;;;;;702570;28;24214;-68
2023/10/11 00:17:14;;;;;;;6.72;3.85;;;;;;;;;;700064;28;1483;-68
2023/10/11 00:17:36;;;;;;;6.60;3.60;;;;;;;;;;701326;28;891;-68
2023/10/11 00:17:56;;;;;;;7.40;3.85;;;;;;;;;;700308;28;2257;-67
2023/10/11 00:18:17;;;;;;;7.85;4.13;;;;;;;;;;701745;28;982;-68
2023/10/11 00:18:38;;;;;;;8.95;4.18;;;;;;;;;;701978;28;958;-68
2023/10/11 00:18:59;;;;;;;7.97;3.90;;;;;;;;;;699941;28;2385;-68
2023/10/11 00:19:19;;;;;;;8.45;4.50;;;;;;;;;;701625;28;5025;-68
2023/10/11 00:19:40;;;;;;;8.77;4.37;;;;;;;;;;703374;28;1842;-68
2023/10/11 00:20:03;;;;;;;7.23;4.03;;;;;;;;;;701563;27;2268;-69
2023/10/11 00:20:47;;;;;;;7.30;4.10;;;;;;;;;;702067;28;23011;-69
2023/10/11 00:21:17;;;;;;;6.35;3.80;;;;;;;;;;698999;28;69600;-68
2023/10/11 00:21:41;;;;;;;8.60;3.95;;;;;;;;;;700267;28;69912;-69
2023/10/11 00:22:05;;;;;;;7.80;3.90;;;;;;;;;;700050;28;23017;-68
2023/10/11 00:22:25;;;;;;;7.65;4.00;;;;;;;;;;701089;28;23519;-68
2023/10/11 00:22:45;;;;;;;6.67;3.93;;;;;;;;;;703873;28;1174;-68
2023/10/11 00:23:06;;;;;;;7.10;4.07;;;;;;;;;;702360;28;1745;-68
2023/10/11 00:23:27;;;;;;;6.90;4.28;;;;;;;;;;700990;28;1217;-68
2023/10/11 00:23:51;;;;;;;7.53;4.32;;;;;;;;;;700444;28;1279;-68
2023/10/11 00:24:11;;;;;;;7.63;3.90;;;;;;;;;;698988;28;23666;-68
2023/10/11 00:24:32;;;;;;;7.83;4.10;;;;;;;;;;700275;28;1465;-68
2023/10/11 00:24:52;;;;;;;8.00;4.00;;;;;;;;;;701382;28;1214;-69
2023/10/11 00:25:23;;;;;;;7.03;3.90;;;;;;;;;;700376;28;4502;-68
2023/10/11 00:25:44;;;;;;;6.53;4.03;;;;;;;;;;700416;28;69699;-68
2023/10/11 00:26:06;;;;;;;6.45;4.10;;;;;;;;;;702805;28;1225;-68
2023/10/11 00:26:27;;;;;;;6.55;3.90;;;;;;;;;;702770;28;1287;-68
2023/10/11 00:26:52;;;;;;;6.93;3.95;;;;;;;;;;701880;28;22905;-67
2023/10/11 00:27:13;;;;;;;7.22;3.90;;;;;;;;;;700812;28;1137;-68
2023/10/11 00:27:33;;;;;;;7.32;4.00;;;;;;;;;;699472;28;1277;-68
2023/10/11 00:27:58;;;;;;;7.78;3.83;;;;;;;;;;701733;28;1299;-68
2023/10/11 00:28:23;;;;;;;7.45;3.85;;;;;;;;;;697638;28;23071;-68
2023/10/11 00:28:43;;;;;;;7.05;4.20;;;;;;;;;;695329;28;49535;-68
2023/10/11 00:29:04;;;;;;;7.03;4.18;;;;;;;;;;699795;28;1728;-68
2023/10/11 00:29:26;;;;;;;8.25;4.38;;;;;;;;;;700911;28;1380;-68
2023/10/11 00:29:48;;;;;;;7.80;3.83;;;;;;;;;;700654;28;1316;-69
2023/10/11 00:30:09;;;;;;;6.32;3.80;;;;;;;;;;699921;28;1190;-68
2023/10/11 00:30:30;;;;;;;7.22;3.95;;;;;;;;;;703933;28;1273;-69
2023/10/11 00:30:51;;;;;;;6.82;3.83;;;;;;;;;;702968;28;1246;-68
2023/10/11 00:31:18;;;;;;;7.68;4.28;;;;;;;;;;700324;28;4464;-68
2023/10/11 00:31:39;;;;;;;7.40;4.10;;;;;;;;;;698832;28;69583;-68
2023/10/11 00:31:59;;;;;;;7.35;4.10;;;;;;;;;;701388;28;1940;-68
2023/10/11 00:32:20;;;;;;;6.30;3.90;;;;;;;;;;701972;28;1353;-68
2023/10/11 00:32:40;;;;;;;6.87;3.93;;;;;;;;;;702113;28;1324;-68
2023/10/11 00:33:00;;;;;;;7.35;3.72;;;;;;;;;;697756;28;2656;-68
2023/10/11 00:33:21;;;;;;;7.50;3.60;;;;;;;;;;700174;28;1155;-68
2023/10/11 00:33:41;;;;;;;7.85;3.97;;;;;;;;;;699806;28;1202;-68
2023/10/11 00:34:03;;;;;;;8.30;4.40;;;;;;;;;;698246;28;3104;-68
2023/10/11 00:34:24;;;;;;;7.72;4.00;;;;;;;;;;702697;28;4480;-68
2023/10/11 00:34:44;;;;;;;10.38;4.10;;;;;;;;;;700632;28;1321;-68
2023/10/11 00:35:05;;;;;;;9.67;3.70;;;;;;;;;;699475;28;1708;-68
2023/10/11 00:35:25;;;;;;;8.25;3.90;;;;;;;;;;700882;28;1134;-68
2023/10/11 00:35:47;;;;;;;8.90;4.40;;;;;;;;;;701092;28;1166;-68
2023/10/11 00:36:08;;;;;;;7.80;4.03;;;;;;;;;;699148;28;2833;-68
2023/10/11 00:36:29;;;;;;;7.53;3.97;;;;;;;;;;699862;28;1398;-68
2023/10/11 00:36:50;;;;;;;6.57;3.80;;;;;;;;;;702880;28;1210;-68
2023/10/11 00:37:10;;;;;;;7.30;3.80;;;;;;;;;;700583;28;4316;-68
2023/10/11 00:37:30;;;;;;;7.97;3.90;;;;;;;;;;702674;28;1316;-67
2023/10/11 00:37:52;;;;;;;9.00;4.57;;;;;;;;;;703412;28;1654;-68
2023/10/11 00:38:14;;;;;;;9.27;4.22;;;;;;;;;;701642;28;1967;-68
2023/10/11 00:38:47;;;;;;;7.80;4.10;;;;;;;;;;702654;28;1312;-68
2023/10/11 00:39:07;;;;;;;8.10;4.10;;;;;;;;;;697504;28;69709;-68
2023/10/11 00:39:28;;;;;;;9.32;4.43;;;;;;;;;;703475;28;6363;-68
2023/10/11 00:39:48;;;;;;;8.53;4.30;;;;;;;;;;702268;28;1226;-68
2023/10/11 00:40:08;;;;;;;8.23;4.07;;;;;;;;;;699470;28;4464;-68
2023/10/11 00:40:33;;;;;;;8.35;3.80;;;;;;;;;;703314;28;1353;-68
2023/10/11 00:41:01;;;;;;;6.93;3.90;;;;;;;;;;702432;28;24341;-68
2023/10/11 00:41:25;;;;;;;6.68;3.78;;;;;;;;;;698061;28;71981;-68
2023/10/11 00:41:48;;;;;;;6.53;3.95;;;;;;;;;;697663;28;23874;-68
2023/10/11 00:42:10;;;;;;;7.60;4.15;;;;;;;;;;697336;28;1763;-68
2023/10/11 00:42:32;;;;;;;9.95;4.25;;;;;;;;;;699711;28;1257;-68
2023/10/11 00:42:52;;;;;;;8.07;4.13;;;;;;;;;;697993;28;1285;-68
2023/10/11 00:43:14;;;;;;;7.38;3.92;;;;;;;;;;697341;28;4712;-68
2023/10/11 00:43:38;;;;;;;8.00;4.20;;;;;;;;;;699937;28;1261;-68
2023/10/11 00:43:58;;;;;;;7.50;4.10;;;;;;;;;;697962;28;49623;-68
2023/10/11 00:44:21;;;;;;;8.23;4.20;;;;;;;;;;700383;28;1379;-68
2023/10/11 00:44:42;;;;;;;8.57;3.97;;;;;;;;;;699086;28;1317;-68
2023/10/11 00:45:07;;;;;;;8.07;3.90;;;;;;;;;;700601;28;1556;-68
2023/10/11 00:45:30;;;;;;;7.53;3.75;;;;;;;;;;699712;28;46000;-68
2023/10/11 00:45:51;;;;;;;7.25;3.90;;;;;;;;;;703038;28;1297;-68
2023/10/11 00:46:14;;;;;;;7.78;3.92;;;;;;;;;;699548;28;4468;-68
2023/10/11 00:46:44;;;;;;;7.68;4.00;;;;;;;;;;701011;28;844;-68
2023/10/11 00:47:06;;;;;;;7.75;3.80;;;;;;;;;;699178;28;68642;-68
2023/10/11 00:47:26;;;;;;;8.95;4.10;;;;;;;;;;703097;28;898;-69
2023/10/11 00:47:50;;;;;;;7.00;4.10;;;;;;;;;;700226;28;1581;-68
2023/10/11 00:48:13;;;;;;;7.95;4.13;;;;;;;;;;697573;28;25160;-68
2023/10/11 00:48:38;;;;;;;8.25;4.18;;;;;;;;;;700019;28;1562;-68
2023/10/11 00:49:09;;;;;;;8.15;3.97;;;;;;;;;;693459;28;70025;-68
2023/10/11 00:49:36;;;;;;;8.65;4.30;;;;;;;;;;693810;28;88536;-68
2023/10/11 00:49:58;;;;;;;9.07;4.32;;;;;;;;;;697002;28;92731;-67
2023/10/11 00:50:21;;;;;;;9.68;4.10;;;;;;;;;;699636;28;2394;-68
2023/10/11 00:50:43;;;;;;;8.60;4.50;;;;;;;;;;699325;28;967;-68
2023/10/11 00:51:07;;;;;;;7.95;4.15;;;;;;;;;;699531;28;992;-69
2023/10/11 00:51:31;;;;;;;6.95;3.95;;;;;;;;;;697532;28;22286;-68
2023/10/11 00:51:51;;;;;;;7.88;3.85;;;;;;;;;;697295;28;1049;-68
2023/10/11 00:52:13;;;;;;;7.72;3.88;;;;;;;;;;696677;28;4805;-68
2023/10/11 00:52:34;;;;;;;8.60;4.05;;;;;;;;;;701413;28;939;-68
2023/10/11 00:52:57;;;;;;;8.73;4.15;;;;;;;;;;698110;28;1322;-68
2023/10/11 00:53:18;;;;;;;6.93;4.10;;;;;;;;;;698983;28;1058;-68
2023/10/11 00:53:38;;;;;;;7.57;4.30;;;;;;;;;;699400;28;912;-68
2023/10/11 00:54:00;;;;;;;7.83;4.00;;;;;;;;;;697946;28;2571;-68
2023/10/11 00:54:21;;;;;;;8.43;4.00;;;;;;;;;;699681;28;820;-68
2023/10/11 00:54:43;;;;;;;7.88;4.20;;;;;;;;;;700601;28;899;-68
2023/10/11 00:55:09;;;;;;;8.30;4.05;;;;;;;;;;701364;28;1604;-68
2023/10/11 00:55:29;;;;;;;7.20;3.88;;;;;;;;;;700663;28;89737;-68
2023/10/11 00:55:50;;;;;;;7.60;3.80;;;;;;;;;;701574;28;859;-68
2023/10/11 00:56:10;;;;;;;7.27;3.80;;;;;;;;;;701587;28;2320;-68
2023/10/11 00:56:33;;;;;;;7.40;4.15;;;;;;;;;;699440;28;884;-68
2023/10/11 00:56:54;;;;;;;7.55;4.15;;;;;;;;;;699942;28;22695;-67
2023/10/11 00:57:15;;;;;;;6.57;4.03;;;;;;;;;;698506;28;1127;-69
2023/10/11 00:57:36;;;;;;;8.10;4.25;;;;;;;;;;696242;28;1260;-68
2023/10/11 00:57:57;;;;;;;8.00;4.20;;;;;;;;;;695573;28;2422;-67
2023/10/11 00:58:18;;;;;;;8.80;4.28;;;;;;;;;;699364;28;4460;-69
2023/10/11 00:58:38;;;;;;;8.07;4.20;;;;;;;;;;704239;28;969;-68
2023/10/11 00:59:08;;;;;;;7.13;4.07;;;;;;;;;;699780;28;1981;-68
2023/10/11 00:59:29;;;;;;;6.40;3.67;;;;;;;;;;700126;28;70824;-68
2023/10/11 00:59:50;;;;;;;9.00;3.85;;;;;;;;;;703813;28;999;-68
2023/10/11 01:00:13;;;;;;;7.30;3.72;;;;;;;;;;698943;28;2354;-68
2023/10/11 01:00:36;;;;;;;6.93;3.72;;;;;;;;;;701021;28;929;-68
2023/10/11 01:00:58;;;;;;;7.03;4.47;;;;;;;;;;697888;28;25402;-67
2023/10/11 01:01:22;;;;;;;8.07;4.05;;;;;;;;;;697395;28;4416;-68
2023/10/11 01:01:42;;;;;;;7.45;4.00;;;;;;;;;;694869;28;24024;-69
2023/10/11 01:02:04;;;;;;;7.80;3.90;;;;;;;;;;695493;28;2305;-68
2023/10/11 01:02:27;;;;;;;8.50;4.15;;;;;;;;;;697784;28;883;-68
2023/10/11 01:02:48;;;;;;;7.90;4.28;;;;;;;;;;700213;28;956;-68
2023/10/11 01:03:08;;;;;;;7.80;4.20;;;;;;;;;;699087;28;1629;-67
2023/10/11 01:03:32;;;;;;;7.68;4.18;;;;;;;;;;703858;28;998;-68
2023/10/11 01:03:54;;;;;;;8.95;4.43;;;;;;;;;;705935;28;23606;-68
2023/10/11 01:04:15;;;;;;;7.80;4.03;;;;;;;;;;701973;27;4484;-68
2023/10/11 01:04:38;;;;;;;7.60;4.13;;;;;;;;;;705029;28;990;-68
2023/10/11 01:05:01;;;;;;;7.38;3.92;;;;;;;;;;705520;27;1974;-68
2023/10/11 01:05:22;;;;;;;6.68;4.00;;;;;;;;;;705853;28;2191;-68
2023/10/11 01:05:48;;;;;;;6.72;4.10;;;;;;;;;;702285;28;971;-68
2023/10/11 01:06:12;;;;;;;9.68;4.38;;;;;;;;;;691360;28;72732;-68
2023/10/11 01:06:34;;;;;;;7.45;4.30;;;;;;;;;;695340;28;1413;-69
2023/10/11 01:06:54;;;;;;;8.10;4.40;;;;;;;;;;693106;28;938;-69
2023/10/11 01:07:15;;;;;;;8.00;4.60;;;;;;;;;;693210;28;4497;-68
2023/10/11 01:07:37;;;;;;;7.28;3.90;;;;;;;;;;695495;28;938;-68
2023/10/11 01:07:57;;;;;;;8.52;4.15;;;;;;;;;;694074;28;1830;-68
2023/10/11 01:08:20;;;;;;;7.88;3.92;;;;;;;;;;696309;28;1489;-68
2023/10/11 01:08:41;;;;;;;8.75;4.50;;;;;;;;;;695606;28;1393;-68
2023/10/11 01:09:26;;;;;;;7.13;4.03;;;;;;;;;;694691;28;1835;-68
2023/10/11 01:09:44;;;;;;;8.15;4.50;;;;;;;;;;691527;28;69081;-69
2023/10/11 01:10:06;;;;;;;6.63;4.00;;;;;;;;;;694416;28;1812;-68
2023/10/11 01:10:29;;;;;;;8.75;4.32;;;;;;;;;;695645;28;6362;-69
2023/10/11 01:10:50;;;;;;;8.25;4.53;;;;;;;;;;696042;28;1438;-68
2023/10/11 01:11:12;;;;;;;7.25;3.88;;;;;;;;;;694050;28;1438;-68
2023/10/11 01:11:34;;;;;;;8.70;3.97;;;;;;;;;;695298;28;1942;-68
2023/10/11 01:11:54;;;;;;;7.55;3.97;;;;;;;;;;694540;28;971;-68
2023/10/11 01:12:15;;;;;;;7.90;4.05;;;;;;;;;;693103;28;1798;-68
2023/10/11 01:12:36;;;;;;;8.88;4.32;;;;;;;;;;696801;28;903;-68
2023/10/11 01:12:57;;;;;;;7.57;4.50;;;;;;;;;;695522;28;3792;-68
2023/10/11 01:13:19;;;;;;;9.13;4.28;;;;;;;;;;693070;28;4477;-68
2023/10/11 01:13:42;;;;;;;8.88;4.03;;;;;;;;;;696355;28;966;-68
2023/10/11 01:14:03;;;;;;;8.30;4.40;;;;;;;;;;691099;28;26030;-68
2023/10/11 01:14:24;;;;;;;8.02;4.00;;;;;;;;;;695607;28;910;-68
2023/10/11 01:14:59;;;;;;;8.87;4.03;;;;;;;;;;693436;28;1241;-68
2023/10/11 01:15:23;;;;;;;8.15;4.20;;;;;;;;;;696678;28;69569;-68
2023/10/11 01:15:43;;;;;;;7.18;4.07;;;;;;;;;;698579;28;1839;-68
2023/10/11 01:16:06;;;;;;;8.50;4.40;;;;;;;;;;698665;28;1842;-68
2023/10/11 01:16:28;;;;;;;7.65;4.20;;;;;;;;;;700658;28;21218;-68
2023/10/11 01:16:51;;;;;;;10.82;4.43;;;;;;;;;;701614;28;969;-68
2023/10/11 01:17:12;;;;;;;9.40;4.35;;;;;;;;;;701441;28;1242;-68
2023/10/11 01:17:33;;;;;;;7.03;4.07;;;;;;;;;;704476;28;961;-68
2023/10/11 01:17:54;;;;;;;9.07;4.10;;;;;;;;;;704431;28;918;-68
2023/10/11 01:18:14;;;;;;;7.20;4.20;;;;;;;;;;700228;28;1908;-68
2023/10/11 01:18:34;;;;;;;7.50;4.30;;;;;;;;;;702862;27;806;-68
2023/10/11 01:18:55;;;;;;;8.47;4.10;;;;;;;;;;703942;28;894;-68
2023/10/11 01:19:18;;;;;;;8.13;4.00;;;;;;;;;;701414;28;4608;-69
2023/10/11 01:19:38;;;;;;;7.50;4.03;;;;;;;;;;702082;28;22382;-68
2023/10/11 01:19:59;;;;;;;7.87;4.30;;;;;;;;;;697428;28;2696;-67
2023/10/11 01:20:20;;;;;;;9.02;3.80;;;;;;;;;;696058;28;2178;-68
2023/10/11 01:20:41;;;;;;;9.25;3.88;;;;;;;;;;696791;28;880;-68
2023/10/11 01:21:03;;;;;;;8.65;4.20;;;;;;;;;;697625;28;1022;-68
2023/10/11 01:21:27;;;;;;;11.13;4.97;;;;;;;;;;699021;28;917;-68
2023/10/11 01:21:54;;;;;;;10.27;4.35;;;;;;;;;;698497;28;22975;-68
2023/10/11 01:22:15;;;;;;;9.23;4.22;;;;;;;;;;693738;28;72561;-68
2023/10/11 01:22:35;;;;;;;9.10;4.25;;;;;;;;;;700222;28;793;-68
2023/10/11 01:22:56;;;;;;;8.13;4.43;;;;;;;;;;700791;28;953;-68
2023/10/11 01:23:16;;;;;;;7.72;4.55;;;;;;;;;;697507;28;1648;-67
2023/10/11 01:23:37;;;;;;;8.07;4.27;;;;;;;;;;700920;28;930;-67
2023/10/11 01:23:57;;;;;;;8.52;4.20;;;;;;;;;;702071;28;836;-67
2023/10/11 01:24:17;;;;;;;8.27;4.30;;;;;;;;;;702142;28;1018;-67
2023/10/11 01:24:41;;;;;;;9.60;4.20;;;;;;;;;;701784;28;906;-67
2023/10/11 01:25:01;;;;;;;8.57;4.07;;;;;;;;;;699860;28;23822;-67
2023/10/11 01:25:22;;;;;;;7.85;4.10;;;;;;;;;;698041;28;5118;-69
2023/10/11 01:25:42;;;;;;;5.87;3.77;;;;;;;;;;698635;28;994;-67
2023/10/11 01:26:06;;;;;;;6.47;3.83;;;;;;;;;;698366;28;2337;-67
2023/10/11 01:26:27;;;;;;;8.13;4.20;;;;;;;;;;697414;28;46826;-67
2023/10/11 01:26:48;;;;;;;8.55;4.03;;;;;;;;;;701715;28;942;-67
2023/10/11 01:27:13;;;;;;;8.70;4.13;;;;;;;;;;701166;28;2356;-67
2023/10/11 01:27:36;;;;;;;7.93;4.28;;;;;;;;;;703289;28;22678;-68
2023/10/11 01:27:57;;;;;;;8.25;4.07;;;;;;;;;;700781;28;22439;-67
2023/10/11 01:28:18;;;;;;;7.72;4.05;;;;;;;;;;698195;28;5025;-67
2023/10/11 01:28:40;;;;;;;7.47;4.03;;;;;;;;;;700746;28;962;-67
2023/10/11 01:29:01;;;;;;;7.13;3.85;;;;;;;;;;700611;28;2935;-68
2023/10/11 01:29:22;;;;;;;8.20;3.95;;;;;;;;;;701335;28;958;-68
2023/10/11 01:29:42;;;;;;;6.93;3.67;;;;;;;;;;698112;28;1488;-68
2023/10/11 01:30:07;;;;;;;7.47;3.67;;;;;;;;;;697367;28;2397;-67
2023/10/11 01:30:27;;;;;;;7.13;4.05;;;;;;;;;;699811;28;23107;-67
2023/10/11 01:30:47;;;;;;;7.70;4.20;;;;;;;;;;701039;28;927;-67
2023/10/11 01:31:11;;;;;;;8.00;4.17;;;;;;;;;;695841;28;5517;-68
2023/10/11 01:31:33;;;;;;;7.72;4.00;;;;;;;;;;698916;28;23768;-68
2023/10/11 01:31:54;;;;;;;8.65;4.00;;;;;;;;;;700103;28;1342;-68
2023/10/11 01:32:15;;;;;;;8.40;4.13;;;;;;;;;;696801;28;2405;-68
2023/10/11 01:32:37;;;;;;;7.30;4.10;;;;;;;;;;698658;28;865;-68
2023/10/11 01:32:57;;;;;;;7.25;4.13;;;;;;;;;;698846;28;1306;-67
2023/10/11 01:33:18;;;;;;;8.73;4.45;;;;;;;;;;699840;28;2266;-68
2023/10/11 01:33:42;;;;;;;6.97;4.20;;;;;;;;;;699413;28;859;-68
2023/10/11 01:34:02;;;;;;;8.80;4.32;;;;;;;;;;700223;28;23888;-68
2023/10/11 01:34:27;;;;;;;7.28;4.20;;;;;;;;;;701019;28;5291;-68
2023/10/11 01:34:47;;;;;;;7.13;4.22;;;;;;;;;;700659;28;22974;-67
2023/10/11 01:35:12;;;;;;;7.83;4.40;;;;;;;;;;700187;28;1592;-67
2023/10/11 01:35:36;;;;;;;8.98;4.43;;;;;;;;;;699558;28;47553;-68
2023/10/11 01:35:58;;;;;;;7.30;4.03;;;;;;;;;;702093;28;23139;-68
2023/10/11 01:36:21;;;;;;;8.88;4.10;;;;;;;;;;700670;28;1266;-68
2023/10/11 01:36:42;;;;;;;9.38;4.75;;;;;;;;;;700970;28;1391;-67
2023/10/11 01:37:02;;;;;;;7.97;4.05;;;;;;;;;;697244;28;901;-67
2023/10/11 01:37:23;;;;;;;8.32;4.53;;;;;;;;;;698146;28;4390;-68
2023/10/11 01:37:43;;;;;;;8.30;4.60;;;;;;;;;;697768;28;1541;-67
2023/10/11 01:38:05;;;;;;;7.75;4.22;;;;;;;;;;692938;28;2122;-68
2023/10/11 01:38:25;;;;;;;7.50;4.30;;;;;;;;;;693271;28;975;-68
2023/10/11 01:38:48;;;;;;;8.03;4.47;;;;;;;;;;696208;28;1185;-67
2023/10/11 01:39:11;;;;;;;7.38;4.45;;;;;;;;;;697830;28;5259;-68
2023/10/11 01:39:32;;;;;;;8.00;4.15;;;;;;;;;;694545;28;905;-68
2023/10/11 01:39:53;;;;;;;8.43;4.13;;;;;;;;;;696217;28;1449;-68
2023/10/11 01:40:39;;;;;;;8.63;4.60;;;;;;;;;;696893;28;4794;-68
2023/10/11 01:40:55;;;;;;;8.60;4.60;;;;;;;;;;698273;28;70046;-67
2023/10/11 01:41:19;;;;;;;7.90;4.30;;;;;;;;;;697689;28;1725;-67
2023/10/11 01:41:42;;;;;;;9.05;4.68;;;;;;;;;;698751;28;22686;-68
2023/10/11 01:42:02;;;;;;;8.98;4.38;;;;;;;;;;700129;28;1500;-68
2023/10/11 01:42:23;;;;;;;7.23;4.13;;;;;;;;;;700296;28;926;-68
2023/10/11 01:42:43;;;;;;;7.32;4.40;;;;;;;;;;698893;28;895;-68
2023/10/11 01:43:04;;;;;;;7.40;4.17;;;;;;;;;;697371;28;3181;-68
2023/10/11 01:43:25;;;;;;;8.93;4.50;;;;;;;;;;698314;28;4392;-68
2023/10/11 01:43:49;;;;;;;8.68;4.63;;;;;;;;;;701273;28;1021;-67
2023/10/11 01:44:10;;;;;;;9.50;4.40;;;;;;;;;;695688;28;45913;-67
2023/10/11 01:44:31;;;;;;;8.40;4.20;;;;;;;;;;699437;28;825;-68
2023/10/11 01:44:52;;;;;;;7.40;4.10;;;;;;;;;;700865;28;919;-68
2023/10/11 01:45:12;;;;;;;9.77;4.10;;;;;;;;;;696744;28;1785;-67
2023/10/11 01:45:33;;;;;;;9.30;4.33;;;;;;;;;;698667;28;947;-67
2023/10/11 01:45:53;;;;;;;7.72;4.18;;;;;;;;;;695671;28;962;-67
2023/10/11 01:46:16;;;;;;;7.78;4.15;;;;;;;;;;696173;28;4489;-67
2023/10/11 01:46:39;;;;;;;7.70;4.10;;;;;;;;;;698291;28;1513;-68
2023/10/11 01:47:01;;;;;;;7.50;4.35;;;;;;;;;;698337;28;24271;-68
2023/10/11 01:47:21;;;;;;;8.52;4.50;;;;;;;;;;698966;28;1279;-67
2023/10/11 01:47:41;;;;;;;8.68;4.38;;;;;;;;;;699426;28;800;-67
2023/10/11 01:48:03;;;;;;;7.60;4.50;;;;;;;;;;695549;28;1606;-67
2023/10/11 01:48:23;;;;;;;7.10;4.25;;;;;;;;;;697060;28;925;-67
2023/10/11 01:48:45;;;;;;;7.70;3.97;;;;;;;;;;698537;28;1468;-67
2023/10/11 01:49:09;;;;;;;8.25;4.25;;;;;;;;;;698142;28;2018;-67
2023/10/11 01:49:37;;;;;;;8.25;4.20;;;;;;;;;;694674;28;67107;-67
2023/10/11 01:49:57;;;;;;;9.25;4.50;;;;;;;;;;692336;28;70604;-69
2023/10/11 01:50:17;;;;;;;9.35;4.47;;;;;;;;;;694944;28;2105;-67
2023/10/11 01:50:38;;;;;;;7.93;4.00;;;;;;;;;;699149;28;1121;-67
2023/10/11 01:51:04;;;;;;;9.88;4.35;;;;;;;;;;701819;28;970;-67
2023/10/11 01:51:27;;;;;;;9.52;4.18;;;;;;;;;;700451;28;46775;-67
2023/10/11 01:51:47;;;;;;;7.50;4.10;;;;;;;;;;699601;28;1905;-67
2023/10/11 01:52:12;;;;;;;7.43;4.30;;;;;;;;;;700259;28;4700;-67
2023/10/11 01:52:34;;;;;;;7.93;4.30;;;;;;;;;;702192;28;46060;-67
2023/10/11 01:52:54;;;;;;;6.93;4.15;;;;;;;;;;704165;28;1006;-68
2023/10/11 01:53:15;;;;;;;7.47;4.15;;;;;;;;;;702813;28;1672;-68
2023/10/11 01:53:38;;;;;;;7.43;4.20;;;;;;;;;;704045;28;961;-68
2023/10/11 01:53:59;;;;;;;7.97;4.35;;;;;;;;;;703405;28;990;-67
2023/10/11 01:54:22;;;;;;;9.60;4.50;;;;;;;;;;701491;28;1634;-67
2023/10/11 01:54:43;;;;;;;9.40;4.35;;;;;;;;;;703278;28;1031;-68
2023/10/11 01:55:04;;;;;;;7.90;4.40;;;;;;;;;;699097;28;1849;-68
2023/10/11 01:55:24;;;;;;;7.30;4.10;;;;;;;;;;696536;28;4860;-68
2023/10/11 01:55:45;;;;;;;7.37;4.13;;;;;;;;;;698916;28;859;-67
2023/10/11 01:56:05;;;;;;;8.57;4.43;;;;;;;;;;696836;28;1776;-67
2023/10/11 01:56:26;;;;;;;8.02;4.55;;;;;;;;;;694365;28;851;-68
2023/10/11 01:56:46;;;;;;;8.73;4.40;;;;;;;;;;696230;28;835;-68
2023/10/11 01:57:10;;;;;;;9.23;4.50;;;;;;;;;;696071;28;2604;-68
2023/10/11 01:57:30;;;;;;;8.55;4.53;;;;;;;;;;695733;28;1461;-67
2023/10/11 01:57:50;;;;;;;6.82;4.55;;;;;;;;;;691990;28;1200;-67
2023/10/11 01:58:12;;;;;;;7.40;4.10;;;;;;;;;;693331;28;4583;-67
2023/10/11 01:58:37;;;;;;;7.50;4.35;;;;;;;;;;694690;28;979;-67
2023/10/11 01:59:01;;;;;;;7.57;4.20;;;;;;;;;;691997;28;48679;-67
2023/10/11 01:59:21;;;;;;;8.95;4.30;;;;;;;;;;691278;28;24950;-68
2023/10/11 01:59:42;;;;;;;9.07;4.43;;;;;;;;;;691508;28;1293;-67
2023/10/11 02:00:06;;;;;;;7.45;4.43;;;;;;;;;;691674;28;1782;-67
2023/10/11 02:00:33;;;;;;;9.60;4.35;;;;;;;;;;695166;28;33368;-68
2023/10/11 02:00:53;;;;;;;9.50;4.78;;;;;;;;;;696774;28;955;-67
2023/10/11 02:01:21;;;;;;;8.77;4.63;;;;;;;;;;693308;28;4606;-68
2023/10/11 02:01:41;;;;;;;10.13;4.57;;;;;;;;;;695407;28;68862;-68
2023/10/11 02:02:03;;;;;;;8.50;4.13;;;;;;;;;;699084;28;1765;-67
2023/10/11 02:02:26;;;;;;;7.60;3.90;;;;;;;;;;700437;28;1114;-67
2023/10/11 02:02:55;;;;;;;7.78;4.25;;;;;;;;;;702010;28;947;-68
2023/10/11 02:03:15;;;;;;;8.32;4.20;;;;;;;;;;698017;28;70290;-68
2023/10/11 02:03:39;;;;;;;7.82;4.25;;;;;;;;;;701102;28;920;-68
2023/10/11 02:04:00;;;;;;;8.00;4.22;;;;;;;;;;697986;28;1522;-69
2023/10/11 02:04:23;;;;;;;9.00;4.55;;;;;;;;;;693209;28;4435;-68
2023/10/11 02:04:43;;;;;;;9.27;4.22;;;;;;;;;;690886;28;1001;-68
2023/10/11 02:05:05;;;;;;;8.63;4.30;;;;;;;;;;691192;28;1674;-68
2023/10/11 02:05:25;;;;;;;8.32;4.47;;;;;;;;;;695216;28;1203;-68
2023/10/11 02:05:45;;;;;;;8.13;4.82;;;;;;;;;;697369;28;1155;-68
2023/10/11 02:06:06;;;;;;;6.90;4.60;;;;;;;;;;698133;28;1048;-67
2023/10/11 02:06:31;;;;;;;8.77;4.40;;;;;;;;;;702345;28;883;-68
2023/10/11 02:06:51;;;;;;;8.93;4.45;;;;;;;;;;700899;28;70281;-67
2023/10/11 02:07:12;;;;;;;7.47;4.63;;;;;;;;;;700948;28;4670;-68
2023/10/11 02:07:32;;;;;;;8.98;4.63;;;;;;;;;;702215;28;863;-68
2023/10/11 02:07:53;;;;;;;8.53;4.63;;;;;;;;;;703922;28;1415;-68
2023/10/11 02:08:17;;;;;;;9.13;4.60;;;;;;;;;;700038;28;1798;-67
2023/10/11 02:08:37;;;;;;;8.60;4.68;;;;;;;;;;698407;28;23999;-67
2023/10/11 02:08:57;;;;;;;8.00;4.53;;;;;;;;;;699210;28;920;-68
2023/10/11 02:09:21;;;;;;;8.70;4.37;;;;;;;;;;698779;28;3515;-67
2023/10/11 02:09:43;;;;;;;7.80;4.40;;;;;;;;;;699613;28;22884;-68
2023/10/11 02:10:04;;;;;;;8.55;4.22;;;;;;;;;;701864;28;1890;-68
2023/10/11 02:10:27;;;;;;;7.55;4.60;;;;;;;;;;704268;27;4543;-68
2023/10/11 02:10:47;;;;;;;6.70;4.60;;;;;;;;;;703789;27;1149;-67
2023/10/11 02:11:07;;;;;;;6.90;4.43;;;;;;;;;;702547;28;1492;-68
2023/10/11 02:11:30;;;;;;;7.83;4.60;;;;;;;;;;703057;28;875;-68
2023/10/11 02:11:54;;;;;;;8.10;4.50;;;;;;;;;;703453;28;1041;-67
2023/10/11 02:12:17;;;;;;;9.73;4.50;;;;;;;;;;700999;28;46971;-68
2023/10/11 02:12:39;;;;;;;7.85;4.28;;;;;;;;;;701254;28;1406;-67
2023/10/11 02:13:00;;;;;;;7.07;4.20;;;;;;;;;;701028;28;942;-68
2023/10/11 02:13:20;;;;;;;7.73;4.17;;;;;;;;;;696768;28;4663;-68
2023/10/11 02:13:41;;;;;;;8.93;4.40;;;;;;;;;;698704;28;1267;-67
2023/10/11 02:14:03;;;;;;;8.88;4.40;;;;;;;;;;694733;28;2561;-67
2023/10/11 02:14:24;;;;;;;9.55;4.47;;;;;;;;;;694890;28;1602;-67
2023/10/11 02:14:45;;;;;;;9.13;4.50;;;;;;;;;;694714;28;1407;-67
2023/10/11 02:15:07;;;;;;;8.50;4.43;;;;;;;;;;693175;28;1514;-68
2023/10/11 02:15:28;;;;;;;8.07;4.30;;;;;;;;;;694826;28;1426;-68
2023/10/11 02:15:49;;;;;;;8.03;4.47;;;;;;;;;;695028;28;931;-67
2023/10/11 02:16:14;;;;;;;8.52;4.70;;;;;;;;;;697805;28;4662;-67
2023/10/11 02:16:36;;;;;;;8.75;4.80;;;;;;;;;;695799;28;70099;-68
2023/10/11 02:16:57;;;;;;;9.70;4.80;;;;;;;;;;695782;28;1244;-67
2023/10/11 02:17:23;;;;;;;9.25;4.65;;;;;;;;;;695179;28;2308;-67
2023/10/11 02:17:47;;;;;;;9.38;4.75;;;;;;;;;;695039;28;68951;-67
2023/10/11 02:18:08;;;;;;;8.10;4.10;;;;;;;;;;696270;28;23201;-68